Create Custom Reports and Graphics: Custom Report

North/Central Map

Map

15 Minute Data

South County Map

Map

15 Minute Data

Northern Sonoma County Latest

13 Stations

15 Minute Data | America/Los_Angeles
as of 5/20/19 6:33 PM PDT
Station Date Time Temp (°F) RH (%) Dew Pt (°F) Wind Spd (mph) Wind Dir (°) Wind Gust (mph) Latest Rain (In) Daily Rain (In) Daily Min Temp (°F) Daily Max Temp (°F)
Cooley-Rockpile 5/20/19 1800 52.5   4.0 69   26 42.4   4.6 5.1 W | 264 15.6   8.3 0.00 0.01 41.9   0.9 60.7   8.4
Cooley Lower Remote 5/20/19 1645 58.6   8.4 55   35 42.6   4.9 9.0 W | 261 16.3   10.9 0.00 0.00 44.6   0.7 63.7   11.2
Rancho Alexander-Cloverdale 5/20/19 1830 61.9   1.9 55   10 45.4   2.7 3.8 WSW | 238 11.5   2.7 0.00 0.00 42.5   4.8 70.5   10.0
Ranch 38 (Cloverdale-SE) 5/20/19 1830 59.1   2.2 57   17 44.1   4.7 4.6 WSW | 247 11.2   1.2 0.00 0.00 43.0   3.3 69.1   10.6
Hoffman - Geyserville 5/20/19 1830 59.6   4.7 58   19 44.8   2.9 5.7 WSW | 250 12.5   6.2 0.00 0.00 41.4   5.2 67.9   10.1
Geyserville Ranch 3 5/20/19 1830 60.8   5.6 54   23 44.2   4.2 6.6 SW | 236 10.2   3.6 0.00 0.00 42.7   4.9 69.2   10.4
Ranch 40 (Geyserville-NE) 5/20/19 1830 58.3   6.7 60   26 44.7   3.2 6.1 WSW | 247 13.6   5.0 0.00 0.00 43.0   2.2 70.0   11.4
Geyserville - S (Nervo Station) 5/20/19 1830 60.4   4.9 54   25 43.9   5.3 5.0 WSW | 245 12.1   5.7 0.00 0.00 42.3   4.3 69.4   10.3
River Oaks (Lytton) 5/20/19 1830 62.0   6.5 55   25 45.6   3.9 9.0 WSW | 240 14.2   8.0 0.00 0.00 43.8   4.6 69.1   10.3
Piccolo - Alexander Valley 5/20/19 1830 61.6   3.7 52   17 43.7   3.9 4.8 WSW | 251 11.0   2.6 0.00 0.00 43.0   5.3 68.2   8.7
Red Fan 5/20/19 1830 61.2   4.8 56   19 45.4   3.4 4.2 W | 270 8.7   1.6 0.00 0.00 42.3   6.2 70.3   10.3
Landslide 5/20/19 1830 60.7   7.2 56   31 44.9   4.9 5.6 SW | 232 10.9   5.5 0.00 0.00 42.4   6.5 69.1   11.0
Dry Creek Valley 5/20/19 1830 60.6   3.7 57   14 45.1   2.2 5.5 WSW | 254 9.6   4.3 0.00 0.01 45.1   2.7 68.3   11.2
Max     62.0 69 45.6 9.0 - 15.6 0.00 0.01 45.1 70.5
Avg     59.9 57 44.5 5.5 - 11.8 0.00 - - -
Min     52.5 52 42.4 3.8 - 8.7 0.00 0.00 41.4 60.7

Central Sonoma County Latest

22 Stations

15 Minute Data | America/Los_Angeles
as of 5/20/19 6:33 PM PDT
Station Date Time Temp (°F) RH (%) Dew Pt (°F) Wind Spd (mph) Wind Dir (°) Wind Gust (mph) Latest Rain (In) Daily Rain (In) Daily Min Temp (°F) Daily Max Temp (°F)
Healdsburg - S (Sodini) 5/20/19 1830 60.6   1.6 58   10 45.7   2.7 5.5 SW | 229 11.5   6.0 0.00 0.00 43.7   4.0 68.4   7.8
Ranch 8 (Windsor-NW) 5/20/19 1830 61.2   2.3 61   16 47.7   4.2 6.8 WSW | 242 13.9   7.8 0.00 0.01 45.6   2.2 67.8   6.8
Foothill Ranch 16 5/20/19 1830 59.4   1.4 62   3 46.4   0.0 5.7 WSW | 237 10.9   5.0 0.00 0.00 40.7   7.1 67.4   9.0
Airport Ranch 14 5/20/19 1830 58.9   2.0 60   12 45.1   3.0 3.2 SW | 229 8.7   4.8 0.00 0.00 43.5   4.0 67.0   7.3
Silk Road 5/20/19 1830 58.9   0.7 64   4 46.8   2.2 6.3 SW | 227 11.4   5.9 0.00 0.00 44.2   2.7 66.8   6.5
Oak Meadows Ranch 5 5/20/19 1830 59.4   0.9 64   7 47.2   2.1 7.5 SSW | 207 12.4   7.4 0.00 0.01 43.2   4.3 67.0   7.4
Laughlin Rd (Windsor-South) 5/20/19 1830 60.7   3.2 58   17 45.9   3.7 - - - 0.00 0.00 44.7   1.6 66.4   7.7
Barnes Rd (SE Fulton) 5/20/19 1830 58.4   2.6 64   12 46.2   1.9 5.9 WSW | 251 11.0   4.3 0.00 0.00 41.9   5.6 65.3   8.1
Crinella Ranch 21 5/20/19 1830 58.9   3.0 63   13 46.2   2.3 5.0 WSW | 256 12.1   7.0 0.00 0.00 43.8   2.6 66.1   8.5
Denner Ranch Base 5/20/19 1830 58.9   3.8 62   16 46.0   2.3 8.6 SW | 230 13.8   9.6 0.00 0.00 44.4   1.0 66.3   7.0
Guerneville Road (Santa Rosa Plains) 5/20/19 1830 58.1   2.2 67   10 47.4   1.4 8.6 W | 272 13.9   8.8 0.00 0.01 44.5   2.1 64.7   7.1
Rich Ranch (Guerneville Rd) 5/20/19 1830 59.2   2.2 64   13 47.1   2.8 - - - - - 43.7   2.9 66.6   7.1
Occidental Rd (Sebastopol) 5/20/19 1830 59.0   2.3 62   13 46.0   2.8 5.4 WSW | 240 13.8   8.1 0.00 0.00 44.6   0.1 65.4   6.8
Garrison Ranch 12 5/20/19 1830 59.6   2.9 63   13 47.0   2.4 4.4 WSW | 250 8.7   5.3 0.00 0.00 43.3   4.0 67.3   6.9
Laughlin Rd (Guerneville) 5/20/19 1830 58.3   0.5 65   4 46.6   2.1 5.1 S | 174 10.5   5.9 0.00 0.01 43.6   4.8 65.3   5.9
Korbel Winery 5/20/19 1830 58.4   0.8 63   12 46.1   3.7 3.4 W | 260 15.6   12.4 0.00 0.00 45.0   3.7 65.5   6.0
Shone Farms (Forestville) 5/20/19 1830 59.5   4.4 64   18 47.2   2.5 4.3 SW | 218 11.5   8.1 0.00 0.01 42.9   2.2 66.6   7.3
Ranch 30 (Forestville-NE) 5/17/19 1015 59.4   6.1 65   25 47.7   2.8 4.4 WNW | 291 10.6   3.7 0.00 0.00 49.0   1.5 61.2   7.5
Dutton Ranch (Graton-West) 5/20/19 1830 58.5   2.5 67   19 47.7   4.1 3.4 WSW | 238 9.0   2.7 0.00 0.00 42.5   3.2 66.2   7.5
Mill Station Rd (Graton-South) 5/20/19 1830 57.8   0.7 66   8 46.7   2.4 5.7 W | 264 11.3   4.8 0.00 0.01 42.3   4.3 63.7   6.0
Burnside Road (Sebastopol Hills) 5/20/19 1830 55.4   1.1 76   4 47.9   0.4 5.9 W | 274 12.0   5.2 0.00 0.00 42.8   3.2 61.9   5.6
Hirsch Vineyards 5/20/19 1830 50.8   0.7 90   2 48.1   1.1 2.3 WSW | 257 4.8   0.9 0.00 0.00 44.7   2.3 56.7   4.1
Max     61.2 90 48.1 8.6 - 15.6 0.00 0.01 45.6 68.4
Avg     58.6 65 46.7 5.4 - 11.4 0.00 - - -
Min     50.8 58 45.1 2.3 - 4.8 0.00 0.00 40.7 56.7

Southern Sonoma County Latest

14 Stations

15 Minute Data | America/Los_Angeles
as of 5/20/19 6:33 PM PDT
Station Date Time Temp (°F) RH (%) Dew Pt (°F) Wind Spd (mph) Wind Dir (°) Wind Gust (mph) Latest Rain (In) Daily Rain (In) Daily Min Temp (°F) Daily Max Temp (°F)
Lower Bennett Valley 5/20/19 1830 56.4   0.8 74   3 48.3   0.3 3.2 W | 262 9.2   2.8 0.00 0.01 36.5   10.1 63.6   5.7
Kunde - Kenwood 5/20/19 1800 56.1   5.6 69   20 46.1   1.3 4.9 SW | 236 13.5   13.5 0.00 0.01 33.2   7.1 61.4   9.2
Sonoma Valley (Bedrock) 5/20/19 1830 57.3   3.6 60   23 43.6   5.0 3.0 WSW | 255 9.1   5.7 0.00 0.00 38.9   6.3 64.8   8.1
Arnold (Sonoma) 5/20/19 1830 58.8   4.7 67   21 47.9   2.9 6.7 WNW | 286 10.5   6.3 0.00 0.00 40.9   3.2 65.5   4.9
Schellville 5/20/19 1830 60.2   5.1 66   22 48.6   2.9 2.0 WNW | 286 7.4   3.0 0.00 0.00 41.4   3.8 69.1   8.9
Napoli (Sonoma-SE) 5/20/19 1830 58.1   2.9 67   18 47.4   3.4 5.1 WNW | 287 10.1   8.4 0.00 0.02 39.3   4.5 67.1   3.9
Diamond R71 (Carneros) 5/20/19 1830 56.8   3.5 71   17 47.8   2.3 11.9 W | 280 17.2   13.0 0.00 0.00 42.1   4.3 64.8   5.0
Huichica Upper 5/20/19 1830 56.9   4.2 70   24 47.0   3.7 15.2 W | 267 20.4   14.7 - - 42.4   3.6 65.1   5.3
Huichica-Lower 5/20/19 1830 57.9   4.5 70   22 48.3   3.0 4.5 W | 273 12.1   7.4 0.00 0.00 39.9   3.6 66.8   8.1
Stony Point (West Rohnert Park) 5/20/19 1830 58.3   2.5 73   6 49.6   0.2 6.1 WSW | 256 12.0   5.8 0.00 0.00 44.5   1.3 62.8   4.4
Asellus (Penngrove) 5/20/19 1830 57.5   2.1 72   10 48.7   1.4 4.1 SW | 234 9.6   3.7 0.00 0.00 41.8   2.2 64.8   5.0
Rodger's Creek 5/20/19 1830 54.9   2.6 74   13 47.0   1.9 6.7 W | 265 11.4   8.6 0.00 0.01 40.8   5.1 61.9   4.5
Frates R10 (East Petaluma) 5/20/19 1830 58.5   2.5 66   16 47.2   3.6 8.9 W | 262 13.8   8.8 0.00 0.00 42.3   2.1 65.8   4.9
Sleepy Hollow-Lakeville 5/20/19 1830 59.1   2.7 64   18 47.1   3.9 8.2 WNW | 288 13.9   9.0 0.00 0.00 43.6   2.6 65.3   4.3
Max     60.2 74 49.6 15.2 - 20.4 0.00 0.02 44.5 69.1
Avg     57.6 69 47.5 6.5 - 12.2 0.00 - - -
Min     54.9 60 43.6 2.0 - 7.4 0.00 0.00 33.2 61.4